sensor_id;sensor_type;location;lat;lon;timestamp;P1;durP1;ratioP1;P2;durP2;ratioP2
5245;SDS011;54412;51.206;6.888;2023-07-31T00:01:31;7.90;;;4.07;;
5245;SDS011;54412;51.206;6.888;2023-07-31T00:03:57;12.40;;;3.93;;
5245;SDS011;54412;51.206;6.888;2023-07-31T00:06:23;9.40;;;4.03;;
5245;SDS011;54412;51.206;6.888;2023-07-31T00:08:48;7.90;;;4.50;;
5245;SDS011;54412;51.206;6.888;2023-07-31T00:11:14;7.60;;;3.63;;
5245;SDS011;54412;51.206;6.888;2023-07-31T00:13:40;9.30;;;5.17;;
5245;SDS011;54412;51.206;6.888;2023-07-31T00:16:05;9.47;;;4.30;;
5245;SDS011;54412;51.206;6.888;2023-07-31T00:18:31;7.23;;;3.90;;
5245;SDS011;54412;51.206;6.888;2023-07-31T00:20:57;6.70;;;3.80;;
5245;SDS011;54412;51.206;6.888;2023-07-31T00:23:22;20.30;;;5.07;;
5245;SDS011;54412;51.206;6.888;2023-07-31T00:25:48;7.73;;;4.13;;
5245;SDS011;54412;51.206;6.888;2023-07-31T00:28:14;6.80;;;3.90;;
5245;SDS011;54412;51.206;6.888;2023-07-31T00:30:39;7.10;;;3.50;;
5245;SDS011;54412;51.206;6.888;2023-07-31T00:33:05;10.07;;;4.57;;
5245;SDS011;54412;51.206;6.888;2023-07-31T00:35:30;11.10;;;4.73;;
5245;SDS011;54412;51.206;6.888;2023-07-31T00:37:57;9.20;;;4.57;;
5245;SDS011;54412;51.206;6.888;2023-07-31T00:40:23;7.40;;;4.03;;
5245;SDS011;54412;51.206;6.888;2023-07-31T00:42:49;6.77;;;4.13;;
5245;SDS011;54412;51.206;6.888;2023-07-31T00:45:15;11.10;;;4.10;;
5245;SDS011;54412;51.206;6.888;2023-07-31T00:47:41;10.30;;;4.23;;
5245;SDS011;54412;51.206;6.888;2023-07-31T00:50:07;9.50;;;4.20;;
5245;SDS011;54412;51.206;6.888;2023-07-31T00:52:33;7.27;;;4.40;;
5245;SDS011;54412;51.206;6.888;2023-07-31T00:54:59;8.57;;;3.30;;
5245;SDS011;54412;51.206;6.888;2023-07-31T00:57:25;8.43;;;4.40;;
5245;SDS011;54412;51.206;6.888;2023-07-31T00:59:50;10.03;;;4.00;;
5245;SDS011;54412;51.206;6.888;2023-07-31T01:02:16;7.60;;;4.00;;
5245;SDS011;54412;51.206;6.888;2023-07-31T01:04:42;9.37;;;4.10;;
5245;SDS011;54412;51.206;6.888;2023-07-31T01:07:22;10.83;;;4.30;;
5245;SDS011;54412;51.206;6.888;2023-07-31T01:12:36;9.90;;;4.17;;
5245;SDS011;54412;51.206;6.888;2023-07-31T01:17:31;7.27;;;3.83;;
5245;SDS011;54412;51.206;6.888;2023-07-31T01:19:59;10.03;;;4.50;;
5245;SDS011;54412;51.206;6.888;2023-07-31T01:28:28;7.30;;;3.97;;
5245;SDS011;54412;51.206;6.888;2023-07-31T01:31:24;11.43;;;3.97;;
5245;SDS011;54412;51.206;6.888;2023-07-31T01:33:54;11.47;;;3.73;;
5245;SDS011;54412;51.206;6.888;2023-07-31T01:36:25;12.27;;;4.70;;
5245;SDS011;54412;51.206;6.888;2023-07-31T01:38:52;14.80;;;4.57;;
5245;SDS011;54412;51.206;6.888;2023-07-31T01:41:23;9.40;;;4.53;;
5245;SDS011;54412;51.206;6.888;2023-07-31T01:43:48;8.27;;;4.33;;
5245;SDS011;54412;51.206;6.888;2023-07-31T01:46:14;7.63;;;3.90;;
5245;SDS011;54412;51.206;6.888;2023-07-31T01:48:40;6.93;;;4.33;;
5245;SDS011;54412;51.206;6.888;2023-07-31T01:51:05;14.10;;;4.03;;
5245;SDS011;54412;51.206;6.888;2023-07-31T01:53:31;16.13;;;3.70;;
5245;SDS011;54412;51.206;6.888;2023-07-31T01:55:57;6.47;;;3.80;;
5245;SDS011;54412;51.206;6.888;2023-07-31T01:58:23;9.67;;;3.83;;
5245;SDS011;54412;51.206;6.888;2023-07-31T02:00:49;7.60;;;3.87;;
5245;SDS011;54412;51.206;6.888;2023-07-31T02:03:14;8.73;;;4.23;;
5245;SDS011;54412;51.206;6.888;2023-07-31T02:05:46;10.30;;;3.83;;
5245;SDS011;54412;51.206;6.888;2023-07-31T02:08:14;8.90;;;4.00;;
5245;SDS011;54412;51.206;6.888;2023-07-31T02:10:40;8.63;;;3.80;;
5245;SDS011;54412;51.206;6.888;2023-07-31T02:13:06;15.97;;;4.83;;
5245;SDS011;54412;51.206;6.888;2023-07-31T02:15:32;11.70;;;4.77;;
5245;SDS011;54412;51.206;6.888;2023-07-31T02:17:58;8.83;;;3.70;;
5245;SDS011;54412;51.206;6.888;2023-07-31T02:20:24;13.03;;;4.23;;
5245;SDS011;54412;51.206;6.888;2023-07-31T02:22:50;6.33;;;4.07;;
5245;SDS011;54412;51.206;6.888;2023-07-31T02:25:16;10.40;;;4.20;;
5245;SDS011;54412;51.206;6.888;2023-07-31T02:27:42;8.43;;;3.90;;
5245;SDS011;54412;51.206;6.888;2023-07-31T02:30:08;9.50;;;4.00;;
5245;SDS011;54412;51.206;6.888;2023-07-31T02:32:34;10.77;;;4.67;;
5245;SDS011;54412;51.206;6.888;2023-07-31T02:35:00;12.10;;;3.93;;
5245;SDS011;54412;51.206;6.888;2023-07-31T02:37:26;8.50;;;4.47;;
5245;SDS011;54412;51.206;6.888;2023-07-31T02:39:53;12.33;;;4.60;;
5245;SDS011;54412;51.206;6.888;2023-07-31T02:42:19;10.77;;;4.43;;
5245;SDS011;54412;51.206;6.888;2023-07-31T02:44:45;15.50;;;4.97;;
5245;SDS011;54412;51.206;6.888;2023-07-31T02:47:11;11.93;;;4.43;;
5245;SDS011;54412;51.206;6.888;2023-07-31T02:49:36;6.50;;;3.70;;
5245;SDS011;54412;51.206;6.888;2023-07-31T02:52:02;11.43;;;4.97;;
5245;SDS011;54412;51.206;6.888;2023-07-31T02:54:28;10.50;;;4.07;;
5245;SDS011;54412;51.206;6.888;2023-07-31T02:56:54;11.57;;;5.07;;
5245;SDS011;54412;51.206;6.888;2023-07-31T02:59:20;10.00;;;4.97;;
5245;SDS011;54412;51.206;6.888;2023-07-31T03:01:45;9.30;;;4.93;;
5245;SDS011;54412;51.206;6.888;2023-07-31T03:04:11;11.13;;;4.33;;
5245;SDS011;54412;51.206;6.888;2023-07-31T03:06:37;9.90;;;4.40;;
5245;SDS011;54412;51.206;6.888;2023-07-31T03:09:02;6.30;;;3.60;;
5245;SDS011;54412;51.206;6.888;2023-07-31T03:11:28;14.30;;;4.03;;
5245;SDS011;54412;51.206;6.888;2023-07-31T03:13:54;9.63;;;4.30;;
5245;SDS011;54412;51.206;6.888;2023-07-31T03:16:19;15.37;;;4.23;;
5245;SDS011;54412;51.206;6.888;2023-07-31T03:18:45;7.13;;;3.80;;
5245;SDS011;54412;51.206;6.888;2023-07-31T03:21:12;13.73;;;4.83;;
5245;SDS011;54412;51.206;6.888;2023-07-31T03:23:38;13.30;;;5.27;;
5245;SDS011;54412;51.206;6.888;2023-07-31T03:26:05;8.17;;;4.27;;
5245;SDS011;54412;51.206;6.888;2023-07-31T03:28:32;10.40;;;4.43;;
5245;SDS011;54412;51.206;6.888;2023-07-31T03:30:58;11.10;;;4.60;;
5245;SDS011;54412;51.206;6.888;2023-07-31T03:33:24;11.60;;;4.93;;
5245;SDS011;54412;51.206;6.888;2023-07-31T03:35:51;7.97;;;4.40;;
5245;SDS011;54412;51.206;6.888;2023-07-31T03:38:17;13.40;;;4.93;;
5245;SDS011;54412;51.206;6.888;2023-07-31T03:40:43;7.27;;;4.20;;
5245;SDS011;54412;51.206;6.888;2023-07-31T03:43:09;13.27;;;4.20;;
5245;SDS011;54412;51.206;6.888;2023-07-31T03:45:34;10.87;;;3.80;;
5245;SDS011;54412;51.206;6.888;2023-07-31T03:48:00;11.73;;;4.60;;
5245;SDS011;54412;51.206;6.888;2023-07-31T03:50:26;13.63;;;4.30;;
5245;SDS011;54412;51.206;6.888;2023-07-31T03:52:52;8.17;;;4.13;;
5245;SDS011;54412;51.206;6.888;2023-07-31T03:55:17;14.23;;;4.50;;
5245;SDS011;54412;51.206;6.888;2023-07-31T03:57:43;7.67;;;4.00;;
5245;SDS011;54412;51.206;6.888;2023-07-31T04:00:09;12.17;;;3.93;;
5245;SDS011;54412;51.206;6.888;2023-07-31T04:02:35;12.17;;;5.63;;
5245;SDS011;54412;51.206;6.888;2023-07-31T04:05:01;7.00;;;3.57;;
5245;SDS011;54412;51.206;6.888;2023-07-31T04:07:27;8.60;;;3.80;;
5245;SDS011;54412;51.206;6.888;2023-07-31T04:09:52;15.47;;;4.70;;
5245;SDS011;54412;51.206;6.888;2023-07-31T04:12:18;7.57;;;4.00;;
5245;SDS011;54412;51.206;6.888;2023-07-31T04:14:44;8.67;;;3.80;;
5245;SDS011;54412;51.206;6.888;2023-07-31T04:17:09;6.07;;;3.83;;
5245;SDS011;54412;51.206;6.888;2023-07-31T04:19:35;8.33;;;4.40;;
5245;SDS011;54412;51.206;6.888;2023-07-31T04:22:01;9.17;;;3.90;;
5245;SDS011;54412;51.206;6.888;2023-07-31T04:24:26;13.00;;;5.17;;
5245;SDS011;54412;51.206;6.888;2023-07-31T04:26:52;6.73;;;3.77;;
5245;SDS011;54412;51.206;6.888;2023-07-31T04:29:19;11.10;;;4.57;;
5245;SDS011;54412;51.206;6.888;2023-07-31T04:31:45;8.23;;;5.23;;
5245;SDS011;54412;51.206;6.888;2023-07-31T04:34:10;4.17;;;3.20;;
5245;SDS011;54412;51.206;6.888;2023-07-31T04:36:37;9.80;;;4.60;;
5245;SDS011;54412;51.206;6.888;2023-07-31T04:39:03;6.07;;;3.67;;
5245;SDS011;54412;51.206;6.888;2023-07-31T04:41:29;8.93;;;4.77;;
5245;SDS011;54412;51.206;6.888;2023-07-31T04:43:54;7.77;;;4.13;;
5245;SDS011;54412;51.206;6.888;2023-07-31T04:46:20;11.97;;;4.80;;
5245;SDS011;54412;51.206;6.888;2023-07-31T04:48:46;8.00;;;4.57;;
5245;SDS011;54412;51.206;6.888;2023-07-31T04:51:11;15.83;;;5.57;;
5245;SDS011;54412;51.206;6.888;2023-07-31T04:53:37;10.60;;;5.00;;
5245;SDS011;54412;51.206;6.888;2023-07-31T04:56:03;12.27;;;4.97;;
5245;SDS011;54412;51.206;6.888;2023-07-31T04:58:28;10.30;;;4.90;;
5245;SDS011;54412;51.206;6.888;2023-07-31T05:00:54;11.17;;;4.40;;
5245;SDS011;54412;51.206;6.888;2023-07-31T05:03:20;8.30;;;4.00;;
5245;SDS011;54412;51.206;6.888;2023-07-31T05:05:46;13.07;;;5.40;;
5245;SDS011;54412;51.206;6.888;2023-07-31T05:08:11;6.33;;;4.50;;
5245;SDS011;54412;51.206;6.888;2023-07-31T05:10:37;12.73;;;5.20;;
5245;SDS011;54412;51.206;6.888;2023-07-31T05:13:03;7.90;;;4.40;;
5245;SDS011;54412;51.206;6.888;2023-07-31T05:15:28;13.37;;;4.80;;
5245;SDS011;54412;51.206;6.888;2023-07-31T05:17:54;7.30;;;4.13;;
5245;SDS011;54412;51.206;6.888;2023-07-31T05:20:20;10.83;;;5.07;;
5245;SDS011;54412;51.206;6.888;2023-07-31T05:22:46;9.70;;;4.03;;
5245;SDS011;54412;51.206;6.888;2023-07-31T05:25:12;9.10;;;4.40;;
5245;SDS011;54412;51.206;6.888;2023-07-31T05:27:38;8.83;;;4.50;;
5245;SDS011;54412;51.206;6.888;2023-07-31T05:30:04;7.03;;;4.17;;
5245;SDS011;54412;51.206;6.888;2023-07-31T05:32:30;19.77;;;5.63;;
5245;SDS011;54412;51.206;6.888;2023-07-31T05:34:56;10.60;;;4.23;;
5245;SDS011;54412;51.206;6.888;2023-07-31T05:37:22;6.20;;;4.40;;
5245;SDS011;54412;51.206;6.888;2023-07-31T05:39:48;12.20;;;5.60;;
5245;SDS011;54412;51.206;6.888;2023-07-31T05:42:14;9.70;;;5.00;;
5245;SDS011;54412;51.206;6.888;2023-07-31T05:44:39;7.47;;;3.70;;
5245;SDS011;54412;51.206;6.888;2023-07-31T05:47:05;10.10;;;5.07;;
5245;SDS011;54412;51.206;6.888;2023-07-31T05:49:31;9.70;;;4.20;;
5245;SDS011;54412;51.206;6.888;2023-07-31T05:51:56;6.33;;;4.20;;
5245;SDS011;54412;51.206;6.888;2023-07-31T05:54:22;7.50;;;4.67;;
5245;SDS011;54412;51.206;6.888;2023-07-31T05:56:48;12.37;;;5.27;;
5245;SDS011;54412;51.206;6.888;2023-07-31T05:59:13;6.90;;;4.37;;
5245;SDS011;54412;51.206;6.888;2023-07-31T06:01:39;10.40;;;4.37;;
5245;SDS011;54412;51.206;6.888;2023-07-31T06:04:05;6.33;;;3.87;;
5245;SDS011;54412;51.206;6.888;2023-07-31T06:06:30;7.93;;;4.30;;
5245;SDS011;54412;51.206;6.888;2023-07-31T06:08:56;7.43;;;3.80;;
5245;SDS011;54412;51.206;6.888;2023-07-31T06:11:22;8.70;;;3.87;;
5245;SDS011;54412;51.206;6.888;2023-07-31T06:13:48;5.03;;;4.20;;
5245;SDS011;54412;51.206;6.888;2023-07-31T06:16:15;8.93;;;3.80;;
5245;SDS011;54412;51.206;6.888;2023-07-31T06:18:41;10.83;;;4.03;;
5245;SDS011;54412;51.206;6.888;2023-07-31T06:21:07;7.30;;;3.80;;
5245;SDS011;54412;51.206;6.888;2023-07-31T06:23:33;9.97;;;4.33;;
5245;SDS011;54412;51.206;6.888;2023-07-31T06:25:59;6.30;;;3.53;;
5245;SDS011;54412;51.206;6.888;2023-07-31T06:28:28;6.80;;;3.70;;
5245;SDS011;54412;51.206;6.888;2023-07-31T06:30:55;7.40;;;4.63;;
5245;SDS011;54412;51.206;6.888;2023-07-31T06:33:21;7.73;;;4.33;;
5245;SDS011;54412;51.206;6.888;2023-07-31T06:35:46;9.30;;;4.13;;
5245;SDS011;54412;51.206;6.888;2023-07-31T06:38:12;8.70;;;3.93;;
5245;SDS011;54412;51.206;6.888;2023-07-31T06:40:38;10.63;;;4.53;;
5245;SDS011;54412;51.206;6.888;2023-07-31T06:43:03;6.70;;;4.27;;
5245;SDS011;54412;51.206;6.888;2023-07-31T06:45:36;6.10;;;3.70;;
5245;SDS011;54412;51.206;6.888;2023-07-31T06:48:02;6.53;;;4.00;;
5245;SDS011;54412;51.206;6.888;2023-07-31T06:50:29;7.80;;;4.70;;
5245;SDS011;54412;51.206;6.888;2023-07-31T06:52:58;7.60;;;4.83;;
5245;SDS011;54412;51.206;6.888;2023-07-31T06:55:24;9.83;;;4.27;;
5245;SDS011;54412;51.206;6.888;2023-07-31T06:57:52;6.80;;;3.70;;
5245;SDS011;54412;51.206;6.888;2023-07-31T07:00:20;5.03;;;4.10;;
5245;SDS011;54412;51.206;6.888;2023-07-31T07:02:47;7.37;;;4.00;;
5245;SDS011;54412;51.206;6.888;2023-07-31T07:05:14;7.70;;;4.47;;
5245;SDS011;54412;51.206;6.888;2023-07-31T07:07:40;5.50;;;3.77;;
5245;SDS011;54412;51.206;6.888;2023-07-31T07:10:06;8.43;;;4.40;;
5245;SDS011;54412;51.206;6.888;2023-07-31T07:12:33;19.63;;;4.50;;
5245;SDS011;54412;51.206;6.888;2023-07-31T07:14:59;6.43;;;3.73;;
5245;SDS011;54412;51.206;6.888;2023-07-31T07:17:26;10.37;;;4.73;;
5245;SDS011;54412;51.206;6.888;2023-07-31T07:19:56;8.13;;;3.40;;
5245;SDS011;54412;51.206;6.888;2023-07-31T07:22:22;6.97;;;4.27;;
5245;SDS011;54412;51.206;6.888;2023-07-31T07:24:49;10.50;;;4.03;;
5245;SDS011;54412;51.206;6.888;2023-07-31T07:27:14;9.63;;;4.20;;
5245;SDS011;54412;51.206;6.888;2023-07-31T07:29:40;11.87;;;4.67;;
5245;SDS011;54412;51.206;6.888;2023-07-31T07:32:06;5.73;;;3.73;;
5245;SDS011;54412;51.206;6.888;2023-07-31T07:34:32;7.17;;;4.00;;
5245;SDS011;54412;51.206;6.888;2023-07-31T07:36:58;8.83;;;5.20;;
5245;SDS011;54412;51.206;6.888;2023-07-31T07:39:23;8.37;;;4.10;;
5245;SDS011;54412;51.206;6.888;2023-07-31T07:41:49;6.37;;;3.80;;
5245;SDS011;54412;51.206;6.888;2023-07-31T07:44:15;10.00;;;4.37;;
5245;SDS011;54412;51.206;6.888;2023-07-31T07:46:41;6.73;;;4.17;;
5245;SDS011;54412;51.206;6.888;2023-07-31T07:49:07;13.80;;;4.23;;
5245;SDS011;54412;51.206;6.888;2023-07-31T07:51:33;12.10;;;3.27;;
5245;SDS011;54412;51.206;6.888;2023-07-31T07:53:58;7.63;;;4.20;;
5245;SDS011;54412;51.206;6.888;2023-07-31T07:56:25;6.70;;;4.40;;
5245;SDS011;54412;51.206;6.888;2023-07-31T07:58:52;6.50;;;4.20;;
5245;SDS011;54412;51.206;6.888;2023-07-31T08:01:19;16.50;;;4.27;;
5245;SDS011;54412;51.206;6.888;2023-07-31T08:03:45;11.57;;;4.70;;
5245;SDS011;54412;51.206;6.888;2023-07-31T08:06:12;8.60;;;3.87;;
5245;SDS011;54412;51.206;6.888;2023-07-31T08:08:38;7.57;;;3.93;;
5245;SDS011;54412;51.206;6.888;2023-07-31T08:11:04;5.53;;;3.90;;
5245;SDS011;54412;51.206;6.888;2023-07-31T08:13:30;18.67;;;4.30;;
5245;SDS011;54412;51.206;6.888;2023-07-31T08:15:55;12.90;;;4.30;;
5245;SDS011;54412;51.206;6.888;2023-07-31T08:18:21;8.37;;;3.50;;
5245;SDS011;54412;51.206;6.888;2023-07-31T08:20:47;7.23;;;4.07;;
5245;SDS011;54412;51.206;6.888;2023-07-31T08:23:13;5.27;;;3.40;;
5245;SDS011;54412;51.206;6.888;2023-07-31T08:25:39;5.67;;;3.53;;
5245;SDS011;54412;51.206;6.888;2023-07-31T08:28:05;3.53;;;3.00;;
5245;SDS011;54412;51.206;6.888;2023-07-31T08:30:31;4.23;;;2.90;;
5245;SDS011;54412;51.206;6.888;2023-07-31T08:33:01;6.50;;;3.20;;
5245;SDS011;54412;51.206;6.888;2023-07-31T08:35:26;9.63;;;3.57;;
5245;SDS011;54412;51.206;6.888;2023-07-31T08:37:55;5.50;;;3.27;;
5245;SDS011;54412;51.206;6.888;2023-07-31T08:40:20;6.90;;;3.90;;
5245;SDS011;54412;51.206;6.888;2023-07-31T08:42:47;6.43;;;2.97;;
5245;SDS011;54412;51.206;6.888;2023-07-31T08:45:19;8.47;;;3.70;;
5245;SDS011;54412;51.206;6.888;2023-07-31T08:47:46;8.30;;;3.83;;
5245;SDS011;54412;51.206;6.888;2023-07-31T08:50:15;7.13;;;3.73;;
5245;SDS011;54412;51.206;6.888;2023-07-31T08:52:43;7.43;;;3.30;;
5245;SDS011;54412;51.206;6.888;2023-07-31T08:55:10;5.87;;;3.60;;
5245;SDS011;54412;51.206;6.888;2023-07-31T08:57:36;3.47;;;3.20;;
5245;SDS011;54412;51.206;6.888;2023-07-31T09:00:04;5.77;;;3.20;;
5245;SDS011;54412;51.206;6.888;2023-07-31T09:05:17;4.57;;;3.23;;
5245;SDS011;54412;51.206;6.888;2023-07-31T09:07:45;6.80;;;3.63;;
5245;SDS011;54412;51.206;6.888;2023-07-31T09:10:14;4.73;;;3.00;;
5245;SDS011;54412;51.206;6.888;2023-07-31T09:12:40;4.27;;;3.20;;
5245;SDS011;54412;51.206;6.888;2023-07-31T09:15:06;8.57;;;3.50;;
5245;SDS011;54412;51.206;6.888;2023-07-31T09:17:34;4.37;;;3.20;;
5245;SDS011;54412;51.206;6.888;2023-07-31T09:20:17;8.53;;;2.73;;
5245;SDS011;54412;51.206;6.888;2023-07-31T09:22:46;5.50;;;3.40;;
5245;SDS011;54412;51.206;6.888;2023-07-31T09:25:23;4.10;;;3.23;;
5245;SDS011;54412;51.206;6.888;2023-07-31T09:27:52;5.63;;;3.33;;
5245;SDS011;54412;51.206;6.888;2023-07-31T09:30:28;7.70;;;4.20;;
5245;SDS011;54412;51.206;6.888;2023-07-31T09:33:02;4.53;;;2.87;;
5245;SDS011;54412;51.206;6.888;2023-07-31T09:35:34;6.80;;;3.83;;
5245;SDS011;54412;51.206;6.888;2023-07-31T09:43:02;5.00;;;3.03;;
5245;SDS011;54412;51.206;6.888;2023-07-31T09:45:32;6.47;;;3.57;;
5245;SDS011;54412;51.206;6.888;2023-07-31T09:48:03;5.50;;;4.13;;
5245;SDS011;54412;51.206;6.888;2023-07-31T09:50:44;6.60;;;4.07;;
5245;SDS011;54412;51.206;6.888;2023-07-31T09:53:12;5.47;;;3.20;;
5245;SDS011;54412;51.206;6.888;2023-07-31T09:55:39;6.90;;;3.73;;
5245;SDS011;54412;51.206;6.888;2023-07-31T09:58:08;4.30;;;3.03;;
5245;SDS011;54412;51.206;6.888;2023-07-31T10:00:36;10.70;;;4.20;;
5245;SDS011;54412;51.206;6.888;2023-07-31T10:03:08;8.60;;;3.93;;
5245;SDS011;54412;51.206;6.888;2023-07-31T10:05:45;6.93;;;4.27;;
5245;SDS011;54412;51.206;6.888;2023-07-31T10:08:15;8.03;;;3.63;;
5245;SDS011;54412;51.206;6.888;2023-07-31T10:10:46;7.80;;;4.60;;
5245;SDS011;54412;51.206;6.888;2023-07-31T10:13:12;9.10;;;3.57;;
5245;SDS011;54412;51.206;6.888;2023-07-31T10:15:40;14.90;;;4.50;;
5245;SDS011;54412;51.206;6.888;2023-07-31T10:18:08;4.97;;;3.40;;
5245;SDS011;54412;51.206;6.888;2023-07-31T10:20:34;3.80;;;3.43;;
5245;SDS011;54412;51.206;6.888;2023-07-31T10:23:01;6.53;;;3.53;;
5245;SDS011;54412;51.206;6.888;2023-07-31T10:25:28;8.63;;;4.03;;
5245;SDS011;54412;51.206;6.888;2023-07-31T10:27:55;12.43;;;3.77;;
5245;SDS011;54412;51.206;6.888;2023-07-31T10:30:24;5.67;;;3.33;;
5245;SDS011;54412;51.206;6.888;2023-07-31T10:32:54;4.07;;;3.70;;
5245;SDS011;54412;51.206;6.888;2023-07-31T10:35:22;7.47;;;3.70;;
5245;SDS011;54412;51.206;6.888;2023-07-31T10:37:48;4.80;;;3.33;;
5245;SDS011;54412;51.206;6.888;2023-07-31T10:40:23;6.97;;;3.30;;
5245;SDS011;54412;51.206;6.888;2023-07-31T10:42:53;5.97;;;3.73;;
5245;SDS011;54412;51.206;6.888;2023-07-31T10:48:03;5.97;;;3.43;;
5245;SDS011;54412;51.206;6.888;2023-07-31T10:50:30;4.97;;;3.60;;
5245;SDS011;54412;51.206;6.888;2023-07-31T10:53:01;8.30;;;3.30;;
5245;SDS011;54412;51.206;6.888;2023-07-31T10:55:32;6.83;;;3.37;;
5245;SDS011;54412;51.206;6.888;2023-07-31T10:58:05;9.93;;;3.83;;
5245;SDS011;54412;51.206;6.888;2023-07-31T11:00:43;5.90;;;3.40;;
5245;SDS011;54412;51.206;6.888;2023-07-31T11:05:53;8.80;;;3.60;;
5245;SDS011;54412;51.206;6.888;2023-07-31T11:08:28;3.70;;;2.80;;
5245;SDS011;54412;51.206;6.888;2023-07-31T11:11:04;11.60;;;3.20;;
5245;SDS011;54412;51.206;6.888;2023-07-31T11:16:08;4.00;;;2.57;;
5245;SDS011;54412;51.206;6.888;2023-07-31T11:18:37;6.00;;;2.53;;
5245;SDS011;54412;51.206;6.888;2023-07-31T11:21:06;4.63;;;1.97;;
5245;SDS011;54412;51.206;6.888;2023-07-31T11:23:32;2.60;;;2.40;;
5245;SDS011;54412;51.206;6.888;2023-07-31T11:26:00;4.80;;;2.47;;
5245;SDS011;54412;51.206;6.888;2023-07-31T11:28:30;3.77;;;2.43;;
5245;SDS011;54412;51.206;6.888;2023-07-31T11:30:58;5.33;;;1.97;;
5245;SDS011;54412;51.206;6.888;2023-07-31T11:33:25;4.37;;;1.83;;
5245;SDS011;54412;51.206;6.888;2023-07-31T11:35:51;1.90;;;1.80;;
5245;SDS011;54412;51.206;6.888;2023-07-31T11:38:22;5.80;;;2.00;;
5245;SDS011;54412;51.206;6.888;2023-07-31T11:40:54;3.43;;;1.67;;
5245;SDS011;54412;51.206;6.888;2023-07-31T11:43:22;2.73;;;2.27;;
5245;SDS011;54412;51.206;6.888;2023-07-31T11:45:56;5.00;;;2.20;;
5245;SDS011;54412;51.206;6.888;2023-07-31T11:48:30;6.43;;;1.90;;
5245;SDS011;54412;51.206;6.888;2023-07-31T11:51:00;1.67;;;1.57;;
5245;SDS011;54412;51.206;6.888;2023-07-31T11:53:39;2.20;;;1.90;;
5245;SDS011;54412;51.206;6.888;2023-07-31T11:56:13;2.90;;;1.60;;
5245;SDS011;54412;51.206;6.888;2023-07-31T11:58:42;2.27;;;1.90;;
5245;SDS011;54412;51.206;6.888;2023-07-31T12:01:18;3.47;;;1.63;;
5245;SDS011;54412;51.206;6.888;2023-07-31T12:03:46;3.13;;;1.67;;
5245;SDS011;54412;51.206;6.888;2023-07-31T12:06:13;1.30;;;1.30;;
5245;SDS011;54412;51.206;6.888;2023-07-31T12:08:39;1.53;;;1.43;;
5245;SDS011;54412;51.206;6.888;2023-07-31T12:11:05;3.13;;;1.70;;
5245;SDS011;54412;51.206;6.888;2023-07-31T12:13:34;1.23;;;1.17;;
5245;SDS011;54412;51.206;6.888;2023-07-31T12:16:01;1.80;;;1.70;;
5245;SDS011;54412;51.206;6.888;2023-07-31T12:18:29;2.70;;;1.43;;
5245;SDS011;54412;51.206;6.888;2023-07-31T12:21:04;2.10;;;1.80;;
5245;SDS011;54412;51.206;6.888;2023-07-31T12:23:34;1.77;;;1.40;;
5245;SDS011;54412;51.206;6.888;2023-07-31T12:26:12;2.03;;;1.47;;
5245;SDS011;54412;51.206;6.888;2023-07-31T12:31:13;4.17;;;2.30;;
5245;SDS011;54412;51.206;6.888;2023-07-31T12:33:46;4.80;;;2.10;;
5245;SDS011;54412;51.206;6.888;2023-07-31T12:36:15;6.03;;;2.20;;
5245;SDS011;54412;51.206;6.888;2023-07-31T12:38:46;1.93;;;1.83;;
5245;SDS011;54412;51.206;6.888;2023-07-31T12:41:12;3.87;;;1.80;;
5245;SDS011;54412;51.206;6.888;2023-07-31T12:43:39;4.10;;;2.00;;
5245;SDS011;54412;51.206;6.888;2023-07-31T12:46:07;3.00;;;2.80;;
5245;SDS011;54412;51.206;6.888;2023-07-31T12:48:33;2.50;;;2.30;;
5245;SDS011;54412;51.206;6.888;2023-07-31T12:51:00;2.47;;;2.27;;
5245;SDS011;54412;51.206;6.888;2023-07-31T12:53:27;1.83;;;1.73;;
5245;SDS011;54412;51.206;6.888;2023-07-31T12:55:54;3.20;;;2.20;;
5245;SDS011;54412;51.206;6.888;2023-07-31T12:58:23;2.90;;;2.40;;
5245;SDS011;54412;51.206;6.888;2023-07-31T13:00:48;2.20;;;2.00;;
5245;SDS011;54412;51.206;6.888;2023-07-31T13:03:14;1.97;;;1.80;;
5245;SDS011;54412;51.206;6.888;2023-07-31T13:05:40;2.93;;;1.73;;
5245;SDS011;54412;51.206;6.888;2023-07-31T13:08:06;4.47;;;2.70;;
5245;SDS011;54412;51.206;6.888;2023-07-31T13:10:32;2.90;;;2.47;;
5245;SDS011;54412;51.206;6.888;2023-07-31T13:12:58;5.90;;;2.00;;
5245;SDS011;54412;51.206;6.888;2023-07-31T13:15:23;2.10;;;1.97;;
5245;SDS011;54412;51.206;6.888;2023-07-31T13:17:49;3.00;;;2.70;;
5245;SDS011;54412;51.206;6.888;2023-07-31T13:20:15;2.63;;;2.37;;
5245;SDS011;54412;51.206;6.888;2023-07-31T13:22:41;6.17;;;3.20;;
5245;SDS011;54412;51.206;6.888;2023-07-31T13:25:06;2.87;;;2.50;;
5245;SDS011;54412;51.206;6.888;2023-07-31T13:27:33;3.07;;;2.77;;
5245;SDS011;54412;51.206;6.888;2023-07-31T13:29:59;4.90;;;3.20;;
5245;SDS011;54412;51.206;6.888;2023-07-31T13:32:25;5.70;;;2.93;;
5245;SDS011;54412;51.206;6.888;2023-07-31T13:34:51;3.40;;;2.63;;
5245;SDS011;54412;51.206;6.888;2023-07-31T13:37:17;4.27;;;3.20;;
5245;SDS011;54412;51.206;6.888;2023-07-31T13:39:42;9.50;;;2.90;;
5245;SDS011;54412;51.206;6.888;2023-07-31T13:42:08;7.60;;;3.20;;
5245;SDS011;54412;51.206;6.888;2023-07-31T13:44:40;5.10;;;2.90;;
5245;SDS011;54412;51.206;6.888;2023-07-31T13:47:07;6.23;;;2.90;;
5245;SDS011;54412;51.206;6.888;2023-07-31T13:49:34;3.93;;;3.10;;
5245;SDS011;54412;51.206;6.888;2023-07-31T13:52:00;3.43;;;2.40;;
5245;SDS011;54412;51.206;6.888;2023-07-31T13:54:27;3.03;;;2.73;;
5245;SDS011;54412;51.206;6.888;2023-07-31T13:56:53;6.20;;;2.83;;
5245;SDS011;54412;51.206;6.888;2023-07-31T13:59:19;2.43;;;2.23;;
5245;SDS011;54412;51.206;6.888;2023-07-31T14:01:45;4.07;;;2.97;;
5245;SDS011;54412;51.206;6.888;2023-07-31T14:04:11;2.47;;;2.27;;
5245;SDS011;54412;51.206;6.888;2023-07-31T14:06:37;3.13;;;2.33;;
5245;SDS011;54412;51.206;6.888;2023-07-31T14:09:03;3.03;;;2.30;;
5245;SDS011;54412;51.206;6.888;2023-07-31T14:11:30;4.70;;;3.07;;
5245;SDS011;54412;51.206;6.888;2023-07-31T14:13:56;3.40;;;2.67;;
5245;SDS011;54412;51.206;6.888;2023-07-31T14:16:22;2.80;;;2.60;;
5245;SDS011;54412;51.206;6.888;2023-07-31T14:18:48;9.03;;;2.63;;
5245;SDS011;54412;51.206;6.888;2023-07-31T14:21:14;2.97;;;2.47;;
5245;SDS011;54412;51.206;6.888;2023-07-31T14:23:40;3.23;;;2.90;;
5245;SDS011;54412;51.206;6.888;2023-07-31T14:26:07;3.20;;;2.50;;
5245;SDS011;54412;51.206;6.888;2023-07-31T14:28:33;2.60;;;2.40;;
5245;SDS011;54412;51.206;6.888;2023-07-31T14:30:58;4.67;;;3.07;;
5245;SDS011;54412;51.206;6.888;2023-07-31T14:33:24;2.93;;;2.70;;
5245;SDS011;54412;51.206;6.888;2023-07-31T14:35:50;4.27;;;2.53;;
5245;SDS011;54412;51.206;6.888;2023-07-31T14:38:16;6.63;;;3.17;;
5245;SDS011;54412;51.206;6.888;2023-07-31T14:40:41;3.60;;;2.43;;
5245;SDS011;54412;51.206;6.888;2023-07-31T14:43:08;3.80;;;3.27;;
5245;SDS011;54412;51.206;6.888;2023-07-31T14:45:33;5.47;;;2.97;;
5245;SDS011;54412;51.206;6.888;2023-07-31T14:47:59;3.30;;;2.87;;
5245;SDS011;54412;51.206;6.888;2023-07-31T14:50:25;5.13;;;3.50;;
5245;SDS011;54412;51.206;6.888;2023-07-31T14:52:51;4.50;;;3.60;;
5245;SDS011;54412;51.206;6.888;2023-07-31T14:55:17;5.57;;;3.23;;
5245;SDS011;54412;51.206;6.888;2023-07-31T14:57:44;6.30;;;3.27;;
5245;SDS011;54412;51.206;6.888;2023-07-31T15:00:09;7.00;;;3.33;;
5245;SDS011;54412;51.206;6.888;2023-07-31T15:02:36;6.67;;;3.57;;
5245;SDS011;54412;51.206;6.888;2023-07-31T15:05:03;4.60;;;3.43;;
5245;SDS011;54412;51.206;6.888;2023-07-31T15:07:29;8.40;;;3.90;;
5245;SDS011;54412;51.206;6.888;2023-07-31T15:09:55;6.60;;;4.10;;
5245;SDS011;54412;51.206;6.888;2023-07-31T15:12:21;5.40;;;3.77;;
5245;SDS011;54412;51.206;6.888;2023-07-31T15:14:48;5.40;;;3.30;;
5245;SDS011;54412;51.206;6.888;2023-07-31T15:17:14;5.17;;;3.53;;
5245;SDS011;54412;51.206;6.888;2023-07-31T15:19:40;15.70;;;8.00;;
5245;SDS011;54412;51.206;6.888;2023-07-31T15:22:06;4.47;;;3.90;;
5245;SDS011;54412;51.206;6.888;2023-07-31T15:24:32;7.07;;;3.73;;
5245;SDS011;54412;51.206;6.888;2023-07-31T15:26:57;6.07;;;3.70;;